sensor_id;sensor_type;location;lat;lon;timestamp;P1;durP1;ratioP1;P2;durP2;ratioP2
33160;SDS011;19522;45.656;11.302;2022-11-27T00:00:30;8.95;;;5.07;;
33160;SDS011;19522;45.656;11.302;2022-11-27T00:02:55;9.88;;;5.10;;
33160;SDS011;19522;45.656;11.302;2022-11-27T00:05:21;9.15;;;4.85;;
33160;SDS011;19522;45.656;11.302;2022-11-27T00:07:46;7.65;;;4.50;;
33160;SDS011;19522;45.656;11.302;2022-11-27T00:10:12;8.98;;;4.68;;
33160;SDS011;19522;45.656;11.302;2022-11-27T00:12:37;8.55;;;3.97;;
33160;SDS011;19522;45.656;11.302;2022-11-27T00:15:03;7.85;;;4.30;;
33160;SDS011;19522;45.656;11.302;2022-11-27T00:17:29;6.47;;;4.25;;
33160;SDS011;19522;45.656;11.302;2022-11-27T00:19:54;7.65;;;4.00;;
33160;SDS011;19522;45.656;11.302;2022-11-27T00:22:20;7.60;;;4.20;;
33160;SDS011;19522;45.656;11.302;2022-11-27T00:24:45;8.20;;;3.90;;
33160;SDS011;19522;45.656;11.302;2022-11-27T00:27:11;5.82;;;3.22;;
33160;SDS011;19522;45.656;11.302;2022-11-27T00:29:36;6.25;;;3.20;;
33160;SDS011;19522;45.656;11.302;2022-11-27T00:32:02;7.10;;;4.07;;
33160;SDS011;19522;45.656;11.302;2022-11-27T00:34:30;5.40;;;3.03;;
33160;SDS011;19522;45.656;11.302;2022-11-27T00:36:56;4.65;;;3.03;;
33160;SDS011;19522;45.656;11.302;2022-11-27T00:39:21;6.22;;;3.70;;
33160;SDS011;19522;45.656;11.302;2022-11-27T00:41:46;7.00;;;3.50;;
33160;SDS011;19522;45.656;11.302;2022-11-27T00:44:12;5.40;;;3.03;;
33160;SDS011;19522;45.656;11.302;2022-11-27T00:46:38;7.97;;;3.50;;
33160;SDS011;19522;45.656;11.302;2022-11-27T00:49:05;5.45;;;3.20;;
33160;SDS011;19522;45.656;11.302;2022-11-27T00:51:32;6.05;;;3.00;;
33160;SDS011;19522;45.656;11.302;2022-11-27T00:53:59;6.88;;;3.13;;
33160;SDS011;19522;45.656;11.302;2022-11-27T00:56:29;5.03;;;3.00;;
33160;SDS011;19522;45.656;11.302;2022-11-27T00:58:56;5.28;;;2.65;;
33160;SDS011;19522;45.656;11.302;2022-11-27T01:01:24;4.35;;;2.60;;
33160;SDS011;19522;45.656;11.302;2022-11-27T01:03:55;6.93;;;3.42;;
33160;SDS011;19522;45.656;11.302;2022-11-27T01:06:22;3.88;;;2.55;;
33160;SDS011;19522;45.656;11.302;2022-11-27T01:08:48;5.57;;;2.70;;
33160;SDS011;19522;45.656;11.302;2022-11-27T01:11:15;4.25;;;2.50;;
33160;SDS011;19522;45.656;11.302;2022-11-27T01:13:43;5.53;;;2.63;;
33160;SDS011;19522;45.656;11.302;2022-11-27T01:16:13;5.10;;;2.90;;
33160;SDS011;19522;45.656;11.302;2022-11-27T01:18:40;4.25;;;2.85;;
33160;SDS011;19522;45.656;11.302;2022-11-27T01:21:08;4.30;;;2.70;;
33160;SDS011;19522;45.656;11.302;2022-11-27T01:23:34;4.55;;;2.45;;
33160;SDS011;19522;45.656;11.302;2022-11-27T01:26:00;5.50;;;2.47;;
33160;SDS011;19522;45.656;11.302;2022-11-27T01:28:30;4.30;;;2.83;;
33160;SDS011;19522;45.656;11.302;2022-11-27T01:30:56;3.55;;;2.55;;
33160;SDS011;19522;45.656;11.302;2022-11-27T01:33:21;3.90;;;2.72;;
33160;SDS011;19522;45.656;11.302;2022-11-27T01:35:57;4.57;;;2.25;;
33160;SDS011;19522;45.656;11.302;2022-11-27T01:38:25;6.28;;;2.53;;
33160;SDS011;19522;45.656;11.302;2022-11-27T01:41:03;3.70;;;2.22;;
33160;SDS011;19522;45.656;11.302;2022-11-27T01:51:32;2.47;;;1.77;;
33160;SDS011;19522;45.656;11.302;2022-11-27T01:53:59;2.97;;;2.00;;
33160;SDS011;19522;45.656;11.302;2022-11-27T01:56:24;5.15;;;2.22;;
33160;SDS011;19522;45.656;11.302;2022-11-27T01:58:52;3.45;;;1.92;;
33160;SDS011;19522;45.656;11.302;2022-11-27T02:01:19;4.63;;;2.33;;
33160;SDS011;19522;45.656;11.302;2022-11-27T02:03:44;5.50;;;2.33;;
33160;SDS011;19522;45.656;11.302;2022-11-27T02:06:13;4.07;;;2.70;;
33160;SDS011;19522;45.656;11.302;2022-11-27T02:08:38;3.60;;;2.15;;
33160;SDS011;19522;45.656;11.302;2022-11-27T02:11:18;4.93;;;2.90;;
33160;SDS011;19522;45.656;11.302;2022-11-27T02:13:58;6.90;;;3.85;;
33160;SDS011;19522;45.656;11.302;2022-11-27T02:22:07;8.32;;;3.45;;
33160;SDS011;19522;45.656;11.302;2022-11-27T02:24:46;5.93;;;3.30;;
33160;SDS011;19522;45.656;11.302;2022-11-27T02:30:02;6.05;;;3.05;;
33160;SDS011;19522;45.656;11.302;2022-11-27T02:35:29;4.75;;;2.55;;
33160;SDS011;19522;45.656;11.302;2022-11-27T02:38:12;3.47;;;2.15;;
33160;SDS011;19522;45.656;11.302;2022-11-27T02:40:58;5.70;;;3.10;;
33160;SDS011;19522;45.656;11.302;2022-11-27T02:43:40;4.47;;;2.78;;
33160;SDS011;19522;45.656;11.302;2022-11-27T02:46:09;5.43;;;2.45;;
33160;SDS011;19522;45.656;11.302;2022-11-27T02:48:46;3.95;;;2.47;;
33160;SDS011;19522;45.656;11.302;2022-11-27T02:51:14;4.57;;;2.58;;
33160;SDS011;19522;45.656;11.302;2022-11-27T02:53:45;2.92;;;2.03;;
33160;SDS011;19522;45.656;11.302;2022-11-27T02:56:16;3.42;;;2.08;;
33160;SDS011;19522;45.656;11.302;2022-11-27T02:58:44;3.20;;;1.95;;
33160;SDS011;19522;45.656;11.302;2022-11-27T03:01:10;5.47;;;2.25;;
33160;SDS011;19522;45.656;11.302;2022-11-27T03:03:39;3.90;;;2.05;;
33160;SDS011;19522;45.656;11.302;2022-11-27T03:06:09;3.80;;;1.83;;
33160;SDS011;19522;45.656;11.302;2022-11-27T03:08:43;3.38;;;1.95;;
33160;SDS011;19522;45.656;11.302;2022-11-27T03:11:19;2.55;;;1.67;;
33160;SDS011;19522;45.656;11.302;2022-11-27T03:13:47;3.65;;;1.50;;
33160;SDS011;19522;45.656;11.302;2022-11-27T03:16:26;2.40;;;1.60;;
33160;SDS011;19522;45.656;11.302;2022-11-27T03:22:00;3.47;;;1.98;;
33160;SDS011;19522;45.656;11.302;2022-11-27T03:24:27;4.70;;;1.92;;
33160;SDS011;19522;45.656;11.302;2022-11-27T03:26:54;3.55;;;1.55;;
33160;SDS011;19522;45.656;11.302;2022-11-27T03:29:22;2.20;;;1.52;;
33160;SDS011;19522;45.656;11.302;2022-11-27T03:31:52;4.00;;;2.00;;
33160;SDS011;19522;45.656;11.302;2022-11-27T03:34:19;3.08;;;1.48;;
33160;SDS011;19522;45.656;11.302;2022-11-27T03:36:44;2.60;;;1.83;;
33160;SDS011;19522;45.656;11.302;2022-11-27T03:39:10;2.42;;;1.80;;
33160;SDS011;19522;45.656;11.302;2022-11-27T03:44:31;3.42;;;1.50;;
33160;SDS011;19522;45.656;11.302;2022-11-27T04:00:54;2.47;;;1.67;;
33160;SDS011;19522;45.656;11.302;2022-11-27T04:03:23;2.83;;;1.42;;
33160;SDS011;19522;45.656;11.302;2022-11-27T04:05:51;2.35;;;1.50;;
33160;SDS011;19522;45.656;11.302;2022-11-27T04:08:17;3.28;;;1.30;;
33160;SDS011;19522;45.656;11.302;2022-11-27T04:10:42;3.45;;;1.73;;
33160;SDS011;19522;45.656;11.302;2022-11-27T04:13:08;3.03;;;1.70;;
33160;SDS011;19522;45.656;11.302;2022-11-27T04:15:33;2.75;;;1.40;;
33160;SDS011;19522;45.656;11.302;2022-11-27T04:17:59;2.22;;;1.50;;
33160;SDS011;19522;45.656;11.302;2022-11-27T04:20:24;2.92;;;1.30;;
33160;SDS011;19522;45.656;11.302;2022-11-27T04:22:50;3.88;;;1.52;;
33160;SDS011;19522;45.656;11.302;2022-11-27T04:25:16;2.28;;;1.50;;
33160;SDS011;19522;45.656;11.302;2022-11-27T04:27:41;2.72;;;1.50;;
33160;SDS011;19522;45.656;11.302;2022-11-27T04:30:07;1.73;;;1.25;;
33160;SDS011;19522;45.656;11.302;2022-11-27T04:32:33;2.75;;;1.55;;
33160;SDS011;19522;45.656;11.302;2022-11-27T04:34:59;3.70;;;1.95;;
33160;SDS011;19522;45.656;11.302;2022-11-27T04:37:25;2.25;;;1.35;;
33160;SDS011;19522;45.656;11.302;2022-11-27T04:39:50;3.03;;;1.88;;
33160;SDS011;19522;45.656;11.302;2022-11-27T04:42:16;2.92;;;1.67;;
33160;SDS011;19522;45.656;11.302;2022-11-27T04:44:41;2.70;;;1.25;;
33160;SDS011;19522;45.656;11.302;2022-11-27T04:47:07;2.58;;;1.52;;
33160;SDS011;19522;45.656;11.302;2022-11-27T04:49:33;2.08;;;1.50;;
33160;SDS011;19522;45.656;11.302;2022-11-27T04:51:58;3.08;;;1.50;;
33160;SDS011;19522;45.656;11.302;2022-11-27T04:54:24;3.58;;;1.50;;
33160;SDS011;19522;45.656;11.302;2022-11-27T04:56:50;2.22;;;1.55;;
33160;SDS011;19522;45.656;11.302;2022-11-27T04:59:15;3.55;;;1.90;;
33160;SDS011;19522;45.656;11.302;2022-11-27T05:01:41;2.80;;;1.73;;
33160;SDS011;19522;45.656;11.302;2022-11-27T05:04:06;3.78;;;2.28;;
33160;SDS011;19522;45.656;11.302;2022-11-27T05:06:32;2.78;;;1.50;;
33160;SDS011;19522;45.656;11.302;2022-11-27T05:08:57;3.67;;;2.15;;
33160;SDS011;19522;45.656;11.302;2022-11-27T05:11:26;2.38;;;1.80;;
33160;SDS011;19522;45.656;11.302;2022-11-27T05:13:53;3.05;;;1.67;;
33160;SDS011;19522;45.656;11.302;2022-11-27T05:16:46;2.80;;;1.60;;
33160;SDS011;19522;45.656;11.302;2022-11-27T05:19:14;2.63;;;1.60;;
33160;SDS011;19522;45.656;11.302;2022-11-27T05:21:41;3.10;;;1.48;;
33160;SDS011;19522;45.656;11.302;2022-11-27T05:24:07;1.75;;;1.45;;
33160;SDS011;19522;45.656;11.302;2022-11-27T05:26:33;3.22;;;1.45;;
33160;SDS011;19522;45.656;11.302;2022-11-27T05:29:00;2.38;;;1.65;;
33160;SDS011;19522;45.656;11.302;2022-11-27T05:31:26;4.40;;;1.65;;
33160;SDS011;19522;45.656;11.302;2022-11-27T05:33:52;3.78;;;2.00;;
33160;SDS011;19522;45.656;11.302;2022-11-27T05:36:18;6.13;;;4.07;;
33160;SDS011;19522;45.656;11.302;2022-11-27T05:38:44;3.05;;;2.50;;
33160;SDS011;19522;45.656;11.302;2022-11-27T05:41:09;6.07;;;5.47;;
33160;SDS011;19522;45.656;11.302;2022-11-27T05:43:35;6.60;;;3.40;;
33160;SDS011;19522;45.656;11.302;2022-11-27T05:46:07;5.78;;;3.10;;
33160;SDS011;19522;45.656;11.302;2022-11-27T05:48:34;5.70;;;4.18;;
33160;SDS011;19522;45.656;11.302;2022-11-27T05:51:00;3.92;;;2.75;;
33160;SDS011;19522;45.656;11.302;2022-11-27T05:53:26;4.45;;;2.55;;
33160;SDS011;19522;45.656;11.302;2022-11-27T05:55:52;2.25;;;1.90;;
33160;SDS011;19522;45.656;11.302;2022-11-27T05:58:18;4.38;;;2.40;;
33160;SDS011;19522;45.656;11.302;2022-11-27T06:00:44;3.17;;;2.40;;
33160;SDS011;19522;45.656;11.302;2022-11-27T06:03:10;3.58;;;2.50;;
33160;SDS011;19522;45.656;11.302;2022-11-27T06:05:39;4.32;;;2.72;;
33160;SDS011;19522;45.656;11.302;2022-11-27T06:08:05;4.03;;;2.53;;
33160;SDS011;19522;45.656;11.302;2022-11-27T06:10:31;5.05;;;2.60;;
33160;SDS011;19522;45.656;11.302;2022-11-27T06:12:57;3.90;;;2.70;;
33160;SDS011;19522;45.656;11.302;2022-11-27T06:15:22;5.00;;;3.20;;
33160;SDS011;19522;45.656;11.302;2022-11-27T06:17:48;5.15;;;3.25;;
33160;SDS011;19522;45.656;11.302;2022-11-27T06:20:14;3.25;;;2.83;;
33160;SDS011;19522;45.656;11.302;2022-11-27T06:22:39;3.05;;;2.42;;
33160;SDS011;19522;45.656;11.302;2022-11-27T06:25:05;5.32;;;2.70;;
33160;SDS011;19522;45.656;11.302;2022-11-27T06:27:32;5.70;;;4.32;;
33160;SDS011;19522;45.656;11.302;2022-11-27T06:29:58;7.00;;;5.22;;
33160;SDS011;19522;45.656;11.302;2022-11-27T06:32:23;7.75;;;5.15;;
33160;SDS011;19522;45.656;11.302;2022-11-27T06:34:49;5.28;;;3.53;;
33160;SDS011;19522;45.656;11.302;2022-11-27T06:37:14;7.13;;;4.50;;
33160;SDS011;19522;45.656;11.302;2022-11-27T06:39:40;6.55;;;5.78;;
33160;SDS011;19522;45.656;11.302;2022-11-27T06:42:05;7.47;;;3.90;;
33160;SDS011;19522;45.656;11.302;2022-11-27T06:44:30;5.13;;;3.83;;
33160;SDS011;19522;45.656;11.302;2022-11-27T06:46:56;4.82;;;3.90;;
33160;SDS011;19522;45.656;11.302;2022-11-27T06:49:21;6.45;;;4.55;;
33160;SDS011;19522;45.656;11.302;2022-11-27T06:51:47;7.97;;;4.47;;
33160;SDS011;19522;45.656;11.302;2022-11-27T06:54:14;7.53;;;4.70;;
33160;SDS011;19522;45.656;11.302;2022-11-27T06:56:39;8.65;;;5.22;;
33160;SDS011;19522;45.656;11.302;2022-11-27T06:59:05;9.15;;;5.30;;
33160;SDS011;19522;45.656;11.302;2022-11-27T07:01:30;6.97;;;4.95;;
33160;SDS011;19522;45.656;11.302;2022-11-27T07:03:56;6.88;;;5.10;;
33160;SDS011;19522;45.656;11.302;2022-11-27T07:06:23;9.70;;;5.30;;
33160;SDS011;19522;45.656;11.302;2022-11-27T07:08:49;8.82;;;5.85;;
33160;SDS011;19522;45.656;11.302;2022-11-27T07:11:19;6.97;;;4.90;;
33160;SDS011;19522;45.656;11.302;2022-11-27T07:13:47;6.65;;;4.70;;
33160;SDS011;19522;45.656;11.302;2022-11-27T07:16:14;6.53;;;4.32;;
33160;SDS011;19522;45.656;11.302;2022-11-27T07:18:42;6.07;;;3.85;;
33160;SDS011;19522;45.656;11.302;2022-11-27T07:21:09;8.52;;;5.32;;
33160;SDS011;19522;45.656;11.302;2022-11-27T07:23:35;8.88;;;5.78;;
33160;SDS011;19522;45.656;11.302;2022-11-27T07:26:05;10.30;;;5.68;;
33160;SDS011;19522;45.656;11.302;2022-11-27T07:28:34;6.75;;;4.80;;
33160;SDS011;19522;45.656;11.302;2022-11-27T07:31:00;6.95;;;4.53;;
33160;SDS011;19522;45.656;11.302;2022-11-27T07:33:26;8.60;;;5.20;;
33160;SDS011;19522;45.656;11.302;2022-11-27T07:35:59;7.88;;;6.00;;
33160;SDS011;19522;45.656;11.302;2022-11-27T07:38:26;10.35;;;5.82;;
33160;SDS011;19522;45.656;11.302;2022-11-27T07:40:52;10.10;;;7.32;;
33160;SDS011;19522;45.656;11.302;2022-11-27T07:43:17;13.07;;;9.07;;
33160;SDS011;19522;45.656;11.302;2022-11-27T07:45:43;14.60;;;11.82;;
33160;SDS011;19522;45.656;11.302;2022-11-27T07:48:08;20.27;;;18.08;;
33160;SDS011;19522;45.656;11.302;2022-11-27T07:50:34;22.00;;;18.73;;
33160;SDS011;19522;45.656;11.302;2022-11-27T07:52:59;15.48;;;13.05;;
33160;SDS011;19522;45.656;11.302;2022-11-27T07:55:25;15.95;;;8.70;;
33160;SDS011;19522;45.656;11.302;2022-11-27T07:57:50;16.20;;;11.73;;
33160;SDS011;19522;45.656;11.302;2022-11-27T08:00:16;15.07;;;11.18;;
33160;SDS011;19522;45.656;11.302;2022-11-27T08:02:41;19.67;;;13.70;;
33160;SDS011;19522;45.656;11.302;2022-11-27T08:05:07;19.70;;;15.65;;
33160;SDS011;19522;45.656;11.302;2022-11-27T08:07:33;22.33;;;14.88;;
33160;SDS011;19522;45.656;11.302;2022-11-27T08:09:59;19.90;;;12.88;;
33160;SDS011;19522;45.656;11.302;2022-11-27T08:12:25;13.55;;;9.48;;
33160;SDS011;19522;45.656;11.302;2022-11-27T08:14:50;9.77;;;7.05;;
33160;SDS011;19522;45.656;11.302;2022-11-27T08:17:16;12.80;;;8.93;;
33160;SDS011;19522;45.656;11.302;2022-11-27T08:19:42;8.07;;;5.78;;
33160;SDS011;19522;45.656;11.302;2022-11-27T08:22:14;13.48;;;7.70;;
33160;SDS011;19522;45.656;11.302;2022-11-27T08:24:43;14.45;;;7.82;;
33160;SDS011;19522;45.656;11.302;2022-11-27T08:27:09;11.15;;;6.95;;
33160;SDS011;19522;45.656;11.302;2022-11-27T08:29:35;11.32;;;6.68;;
33160;SDS011;19522;45.656;11.302;2022-11-27T08:32:01;11.27;;;7.18;;
33160;SDS011;19522;45.656;11.302;2022-11-27T08:34:27;12.88;;;7.75;;
33160;SDS011;19522;45.656;11.302;2022-11-27T08:36:52;10.88;;;6.70;;
33160;SDS011;19522;45.656;11.302;2022-11-27T08:39:18;11.27;;;6.40;;
33160;SDS011;19522;45.656;11.302;2022-11-27T08:41:43;8.38;;;5.78;;
33160;SDS011;19522;45.656;11.302;2022-11-27T08:44:09;8.88;;;5.85;;
33160;SDS011;19522;45.656;11.302;2022-11-27T08:46:35;8.98;;;6.63;;
33160;SDS011;19522;45.656;11.302;2022-11-27T08:49:00;10.27;;;7.25;;
33160;SDS011;19522;45.656;11.302;2022-11-27T08:51:26;10.50;;;7.78;;
33160;SDS011;19522;45.656;11.302;2022-11-27T08:53:51;13.30;;;8.18;;
33160;SDS011;19522;45.656;11.302;2022-11-27T08:56:18;13.07;;;8.38;;
33160;SDS011;19522;45.656;11.302;2022-11-27T08:58:46;16.80;;;10.23;;
33160;SDS011;19522;45.656;11.302;2022-11-27T09:01:19;17.33;;;9.85;;
33160;SDS011;19522;45.656;11.302;2022-11-27T09:03:45;10.73;;;7.15;;
33160;SDS011;19522;45.656;11.302;2022-11-27T09:06:12;17.60;;;11.38;;
33160;SDS011;19522;45.656;11.302;2022-11-27T09:08:43;60.15;;;35.78;;
33160;SDS011;19522;45.656;11.302;2022-11-27T09:11:09;25.95;;;16.55;;
33160;SDS011;19522;45.656;11.302;2022-11-27T09:13:36;23.35;;;15.88;;
33160;SDS011;19522;45.656;11.302;2022-11-27T09:16:03;21.70;;;13.75;;
33160;SDS011;19522;45.656;11.302;2022-11-27T09:18:30;14.18;;;10.95;;
33160;SDS011;19522;45.656;11.302;2022-11-27T09:20:56;9.43;;;7.25;;
33160;SDS011;19522;45.656;11.302;2022-11-27T09:23:27;10.25;;;8.07;;
33160;SDS011;19522;45.656;11.302;2022-11-27T09:25:53;10.38;;;6.22;;
33160;SDS011;19522;45.656;11.302;2022-11-27T09:28:22;7.18;;;5.75;;
33160;SDS011;19522;45.656;11.302;2022-11-27T09:30:48;10.77;;;6.88;;
33160;SDS011;19522;45.656;11.302;2022-11-27T09:33:18;10.40;;;8.25;;
33160;SDS011;19522;45.656;11.302;2022-11-27T09:35:43;8.55;;;5.80;;
33160;SDS011;19522;45.656;11.302;2022-11-27T09:38:09;10.65;;;5.40;;
33160;SDS011;19522;45.656;11.302;2022-11-27T09:40:35;6.88;;;4.90;;
33160;SDS011;19522;45.656;11.302;2022-11-27T09:43:02;9.52;;;5.60;;
33160;SDS011;19522;45.656;11.302;2022-11-27T09:45:34;7.22;;;5.82;;
33160;SDS011;19522;45.656;11.302;2022-11-27T09:50:41;10.60;;;6.97;;
33160;SDS011;19522;45.656;11.302;2022-11-27T09:55:56;14.00;;;11.27;;
33160;SDS011;19522;45.656;11.302;2022-11-27T09:58:46;11.70;;;7.30;;
33160;SDS011;19522;45.656;11.302;2022-11-27T10:01:32;7.22;;;4.70;;
33160;SDS011;19522;45.656;11.302;2022-11-27T10:04:01;5.15;;;3.70;;
33160;SDS011;19522;45.656;11.302;2022-11-27T10:06:28;6.18;;;4.05;;
33160;SDS011;19522;45.656;11.302;2022-11-27T10:09:10;7.05;;;5.38;;
33160;SDS011;19522;45.656;11.302;2022-11-27T10:20:15;4.72;;;2.85;;
33160;SDS011;19522;45.656;11.302;2022-11-27T10:23:04;6.40;;;4.78;;
33160;SDS011;19522;45.656;11.302;2022-11-27T10:31:09;5.65;;;1.77;;
33160;SDS011;19522;45.656;11.302;2022-11-27T10:33:46;2.95;;;1.70;;
33160;SDS011;19522;45.656;11.302;2022-11-27T10:36:29;4.07;;;2.10;;
33160;SDS011;19522;45.656;11.302;2022-11-27T10:38:59;4.65;;;2.80;;
33160;SDS011;19522;45.656;11.302;2022-11-27T10:41:27;4.00;;;2.25;;
33160;SDS011;19522;45.656;11.302;2022-11-27T10:43:57;4.55;;;2.72;;
33160;SDS011;19522;45.656;11.302;2022-11-27T10:46:29;3.28;;;2.08;;
33160;SDS011;19522;45.656;11.302;2022-11-27T10:48:58;3.13;;;1.90;;
33160;SDS011;19522;45.656;11.302;2022-11-27T10:51:24;4.32;;;2.20;;
33160;SDS011;19522;45.656;11.302;2022-11-27T10:53:55;3.35;;;2.10;;
33160;SDS011;19522;45.656;11.302;2022-11-27T10:59:20;3.42;;;1.85;;
33160;SDS011;19522;45.656;11.302;2022-11-27T11:01:51;3.55;;;1.90;;
33160;SDS011;19522;45.656;11.302;2022-11-27T11:04:21;3.53;;;2.17;;
33160;SDS011;19522;45.656;11.302;2022-11-27T11:06:51;3.00;;;1.73;;
33160;SDS011;19522;45.656;11.302;2022-11-27T11:11:44;3.20;;;1.63;;
33160;SDS011;19522;45.656;11.302;2022-11-27T11:14:17;3.88;;;1.67;;
33160;SDS011;19522;45.656;11.302;2022-11-27T11:16:51;2.55;;;1.60;;
33160;SDS011;19522;45.656;11.302;2022-11-27T11:19:31;2.78;;;1.52;;
33160;SDS011;19522;45.656;11.302;2022-11-27T11:21:58;2.47;;;1.50;;
33160;SDS011;19522;45.656;11.302;2022-11-27T11:24:28;3.13;;;1.58;;
33160;SDS011;19522;45.656;11.302;2022-11-27T11:27:09;3.03;;;1.45;;
33160;SDS011;19522;45.656;11.302;2022-11-27T11:34:46;2.78;;;1.50;;
33160;SDS011;19522;45.656;11.302;2022-11-27T11:42:47;2.72;;;1.70;;
33160;SDS011;19522;45.656;11.302;2022-11-27T11:45:44;4.13;;;1.30;;
33160;SDS011;19522;45.656;11.302;2022-11-27T11:48:23;2.42;;;1.58;;
33160;SDS011;19522;45.656;11.302;2022-11-27T11:50:54;2.83;;;1.40;;
33160;SDS011;19522;45.656;11.302;2022-11-27T11:53:30;3.08;;;1.80;;
33160;SDS011;19522;45.656;11.302;2022-11-27T11:56:05;3.35;;;1.67;;
33160;SDS011;19522;45.656;11.302;2022-11-27T12:10:02;3.33;;;1.80;;
33160;SDS011;19522;45.656;11.302;2022-11-27T12:17:59;4.35;;;1.90;;
33160;SDS011;19522;45.656;11.302;2022-11-27T12:26:35;5.55;;;2.42;;
33160;SDS011;19522;45.656;11.302;2022-11-27T12:34:14;2.75;;;1.52;;
33160;SDS011;19522;45.656;11.302;2022-11-27T12:45:22;3.53;;;1.88;;
33160;SDS011;19522;45.656;11.302;2022-11-27T12:47:54;4.88;;;2.40;;
33160;SDS011;19522;45.656;11.302;2022-11-27T12:55:47;3.10;;;2.35;;
33160;SDS011;19522;45.656;11.302;2022-11-27T12:58:36;3.95;;;2.63;;
33160;SDS011;19522;45.656;11.302;2022-11-27T13:01:05;3.75;;;2.00;;
33160;SDS011;19522;45.656;11.302;2022-11-27T13:03:42;2.75;;;2.05;;
33160;SDS011;19522;45.656;11.302;2022-11-27T13:06:19;6.57;;;2.78;;
33160;SDS011;19522;45.656;11.302;2022-11-27T13:11:25;5.55;;;2.95;;
33160;SDS011;19522;45.656;11.302;2022-11-27T13:14:11;4.28;;;2.40;;
33160;SDS011;19522;45.656;11.302;2022-11-27T13:16:43;5.20;;;2.30;;
33160;SDS011;19522;45.656;11.302;2022-11-27T13:21:54;4.20;;;2.70;;
33160;SDS011;19522;45.656;11.302;2022-11-27T13:24:22;5.65;;;3.00;;
33160;SDS011;19522;45.656;11.302;2022-11-27T13:29:29;5.07;;;2.85;;
33160;SDS011;19522;45.656;11.302;2022-11-27T13:31:59;5.72;;;3.15;;
33160;SDS011;19522;45.656;11.302;2022-11-27T13:34:27;8.05;;;3.00;;
33160;SDS011;19522;45.656;11.302;2022-11-27T13:36:59;4.85;;;3.30;;
33160;SDS011;19522;45.656;11.302;2022-11-27T13:39:35;6.38;;;4.28;;
33160;SDS011;19522;45.656;11.302;2022-11-27T13:42:18;7.97;;;4.88;;
33160;SDS011;19522;45.656;11.302;2022-11-27T13:44:56;9.93;;;6.22;;
33160;SDS011;19522;45.656;11.302;2022-11-27T13:47:24;7.75;;;4.85;;
33160;SDS011;19522;45.656;11.302;2022-11-27T13:49:59;9.00;;;5.65;;
33160;SDS011;19522;45.656;11.302;2022-11-27T13:55:52;8.48;;;5.38;;
33160;SDS011;19522;45.656;11.302;2022-11-27T13:58:28;20.30;;;10.60;;
33160;SDS011;19522;45.656;11.302;2022-11-27T14:00:56;31.45;;;16.75;;
33160;SDS011;19522;45.656;11.302;2022-11-27T14:03:26;21.73;;;12.85;;
33160;SDS011;19522;45.656;11.302;2022-11-27T14:05:55;27.92;;;15.80;;
33160;SDS011;19522;45.656;11.302;2022-11-27T14:08:29;22.33;;;14.20;;
33160;SDS011;19522;45.656;11.302;2022-11-27T14:10:58;14.00;;;9.43;;
33160;SDS011;19522;45.656;11.302;2022-11-27T14:13:41;12.10;;;7.82;;
33160;SDS011;19522;45.656;11.302;2022-11-27T14:18:52;10.95;;;7.60;;
33160;SDS011;19522;45.656;11.302;2022-11-27T14:21:23;10.82;;;7.15;;
33160;SDS011;19522;45.656;11.302;2022-11-27T14:26:59;14.30;;;8.85;;
33160;SDS011;19522;45.656;11.302;2022-11-27T14:29:27;12.35;;;8.02;;
33160;SDS011;19522;45.656;11.302;2022-11-27T14:31:55;13.15;;;7.43;;
33160;SDS011;19522;45.656;11.302;2022-11-27T14:34:31;13.48;;;9.18;;
33160;SDS011;19522;45.656;11.302;2022-11-27T14:36:58;15.48;;;10.18;;
33160;SDS011;19522;45.656;11.302;2022-11-27T14:39:27;13.55;;;8.63;;
33160;SDS011;19522;45.656;11.302;2022-11-27T14:44:43;13.15;;;9.63;;
33160;SDS011;19522;45.656;11.302;2022-11-27T14:47:14;18.10;;;12.05;;
33160;SDS011;19522;45.656;11.302;2022-11-27T14:49:50;16.88;;;11.13;;
33160;SDS011;19522;45.656;11.302;2022-11-27T14:52:18;14.93;;;10.50;;
33160;SDS011;19522;45.656;11.302;2022-11-27T14:54:43;13.48;;;10.15;;
33160;SDS011;19522;45.656;11.302;2022-11-27T14:57:30;18.27;;;12.35;;
33160;SDS011;19522;45.656;11.302;2022-11-27T15:02:52;16.17;;;11.48;;
33160;SDS011;19522;45.656;11.302;2022-11-27T15:05:22;15.52;;;11.02;;
33160;SDS011;19522;45.656;11.302;2022-11-27T15:07:57;17.02;;;11.32;;
33160;SDS011;19522;45.656;11.302;2022-11-27T15:10:29;18.52;;;11.90;;
33160;SDS011;19522;45.656;11.302;2022-11-27T15:12:55;17.67;;;12.38;;
33160;SDS011;19522;45.656;11.302;2022-11-27T15:15:24;17.55;;;12.82;;
33160;SDS011;19522;45.656;11.302;2022-11-27T15:17:54;19.95;;;12.73;;
33160;SDS011;19522;45.656;11.302;2022-11-27T15:20:41;19.08;;;13.07;;
33160;SDS011;19522;45.656;11.302;2022-11-27T15:28:32;20.10;;;14.15;;
33160;SDS011;19522;45.656;11.302;2022-11-27T15:31:01;20.42;;;13.60;;
33160;SDS011;19522;45.656;11.302;2022-11-27T15:34:03;22.52;;;13.20;;
33160;SDS011;19522;45.656;11.302;2022-11-27T15:36:33;20.58;;;12.77;;
33160;SDS011;19522;45.656;11.302;2022-11-27T15:39:14;17.40;;;12.45;;
33160;SDS011;19522;45.656;11.302;2022-11-27T15:41:53;23.05;;;13.85;;
33160;SDS011;19522;45.656;11.302;2022-11-27T15:44:21;22.17;;;14.30;;
33160;SDS011;19522;45.656;11.302;2022-11-27T15:46:48;26.05;;;17.83;;
33160;SDS011;19522;45.656;11.302;2022-11-27T15:49:15;28.58;;;18.95;;
33160;SDS011;19522;45.656;11.302;2022-11-27T15:51:40;27.50;;;18.52;;
33160;SDS011;19522;45.656;11.302;2022-11-27T15:54:07;29.38;;;18.83;;
33160;SDS011;19522;45.656;11.302;2022-11-27T15:56:32;31.65;;;20.40;;
33160;SDS011;19522;45.656;11.302;2022-11-27T15:58:59;27.20;;;17.92;;
33160;SDS011;19522;45.656;11.302;2022-11-27T16:01:29;35.42;;;23.58;;
33160;SDS011;19522;45.656;11.302;2022-11-27T16:03:55;37.42;;;22.55;;
33160;SDS011;19522;45.656;11.302;2022-11-27T16:06:20;42.15;;;24.13;;
33160;SDS011;19522;45.656;11.302;2022-11-27T16:11:28;58.90;;;31.98;;
33160;SDS011;19522;45.656;11.302;2022-11-27T16:14:00;63.58;;;32.00;;
33160;SDS011;19522;45.656;11.302;2022-11-27T16:16:27;48.38;;;26.17;;
33160;SDS011;19522;45.656;11.302;2022-11-27T16:18:58;50.90;;;27.02;;
33160;SDS011;19522;45.656;11.302;2022-11-27T16:21:25;42.03;;;23.77;;
33160;SDS011;19522;45.656;11.302;2022-11-27T16:23:55;39.47;;;21.88;;
33160;SDS011;19522;45.656;11.302;2022-11-27T16:26:26;35.83;;;20.97;;
33160;SDS011;19522;45.656;11.302;2022-11-27T16:28:55;31.48;;;19.63;;
33160;SDS011;19522;45.656;11.302;2022-11-27T16:31:22;36.33;;;20.25;;
33160;SDS011;19522;45.656;11.302;2022-11-27T16:33:53;34.90;;;19.45;;
33160;SDS011;19522;45.656;11.302;2022-11-27T16:36:20;28.63;;;17.83;;
33160;SDS011;19522;45.656;11.302;2022-11-27T16:38:49;29.42;;;17.98;;
33160;SDS011;19522;45.656;11.302;2022-11-27T16:41:18;32.67;;;21.58;;
33160;SDS011;19522;45.656;11.302;2022-11-27T16:43:49;38.00;;;22.45;;
33160;SDS011;19522;45.656;11.302;2022-11-27T16:46:23;31.25;;;19.98;;
33160;SDS011;19522;45.656;11.302;2022-11-27T16:48:51;32.92;;;20.08;;
33160;SDS011;19522;45.656;11.302;2022-11-27T16:51:22;27.70;;;18.35;;
33160;SDS011;19522;45.656;11.302;2022-11-27T16:53:51;24.95;;;16.65;;
33160;SDS011;19522;45.656;11.302;2022-11-27T16:56:22;26.33;;;16.48;;
33160;SDS011;19522;45.656;11.302;2022-11-27T16:58:51;23.27;;;14.23;;
33160;SDS011;19522;45.656;11.302;2022-11-27T17:01:28;22.52;;;14.38;;
33160;SDS011;19522;45.656;11.302;2022-11-27T17:03:55;22.13;;;14.55;;
33160;SDS011;19522;45.656;11.302;2022-11-27T17:06:23;24.83;;;15.52;;